Time;durP1;ratioP1;P1;durP2;ratioP2;P2;SDS_P1;SDS_P2;PMS_P1;PMS_P2;Temp;Humidity;BMP_temperature;BMP_pressure;BME280_temperature;BME280_humidity;BME280_pressure;Samples;Min_cycle;Max_cycle;Signal;HPM_P1;HPM_P2
2023/12/02 00:02:20;;;;;;;33.67;20.58;;;;;;;;;;5036914;28;20048;-77
2023/12/02 00:04:46;;;;;;;33.33;21.15;;;;;;;;;;5054456;28;20103;-77
2023/12/02 00:07:12;;;;;;;30.17;19.70;;;;;;;;;;5054469;28;20048;-77
2023/12/02 00:09:38;;;;;;;34.15;20.85;;;;;;;;;;5020403;28;20465;-77
2023/12/02 00:12:04;;;;;;;31.88;20.35;;;;;;;;;;5036721;28;20045;-77
2023/12/02 00:14:30;;;;;;;30.38;20.20;;;;;;;;;;5053315;28;20045;-77
2023/12/02 00:16:57;;;;;;;32.20;20.20;;;;;;;;;;5036748;28;20052;-77
2023/12/02 00:19:23;;;;;;;32.25;20.45;;;;;;;;;;5052996;28;20481;-77
2023/12/02 00:21:50;;;;;;;29.90;19.58;;;;;;;;;;5036612;28;20091;-77
2023/12/02 00:24:16;;;;;;;30.90;20.40;;;;;;;;;;5054126;28;20132;-77
2023/12/02 00:26:42;;;;;;;32.35;20.58;;;;;;;;;;5054347;28;20047;-77
2023/12/02 00:29:08;;;;;;;31.70;20.48;;;;;;;;;;5053823;28;20044;-77
2023/12/02 00:31:34;;;;;;;32.85;20.38;;;;;;;;;;5053244;28;20049;-77
2023/12/02 00:34:00;;;;;;;32.47;20.10;;;;;;;;;;5036364;28;20041;-77
2023/12/02 00:36:27;;;;;;;30.42;18.83;;;;;;;;;;5036626;28;20072;-77
2023/12/02 00:38:53;;;;;;;32.10;19.88;;;;;;;;;;5052612;28;20052;-77
2023/12/02 00:41:19;;;;;;;32.60;19.98;;;;;;;;;;5036309;28;20099;-77
2023/12/02 00:43:45;;;;;;;31.52;21.40;;;;;;;;;;5052559;28;20107;-77
2023/12/02 00:46:11;;;;;;;31.15;20.13;;;;;;;;;;5052823;28;20053;-77
2023/12/02 00:48:37;;;;;;;30.00;19.63;;;;;;;;;;5036181;28;20049;-77
2023/12/02 00:51:04;;;;;;;30.00;19.33;;;;;;;;;;5035769;28;20053;-77
2023/12/02 00:53:30;;;;;;;30.35;19.65;;;;;;;;;;5052636;28;20500;-77
2023/12/02 00:55:56;;;;;;;35.47;21.30;;;;;;;;;;5052692;28;20048;-77
2023/12/02 00:58:22;;;;;;;32.53;19.85;;;;;;;;;;5036087;28;20048;-77
2023/12/02 01:00:48;;;;;;;30.42;20.45;;;;;;;;;;5052432;28;20136;-77
2023/12/02 01:03:14;;;;;;;30.98;19.70;;;;;;;;;;5052039;28;20037;-77
2023/12/02 01:05:40;;;;;;;35.08;21.25;;;;;;;;;;5035904;28;20047;-77
2023/12/02 01:08:06;;;;;;;32.95;20.52;;;;;;;;;;5036269;28;20384;-77
2023/12/02 01:10:32;;;;;;;33.92;20.35;;;;;;;;;;5052487;28;20141;-77
2023/12/02 01:12:58;;;;;;;32.97;20.92;;;;;;;;;;5052682;28;20045;-77
2023/12/02 01:15:24;;;;;;;30.75;20.67;;;;;;;;;;5036753;28;20049;-77
2023/12/02 01:17:50;;;;;;;31.48;20.27;;;;;;;;;;5052870;28;20465;-77
2023/12/02 01:20:16;;;;;;;32.75;20.25;;;;;;;;;;5054196;28;20077;-77
2023/12/02 01:22:42;;;;;;;35.53;22.08;;;;;;;;;;5053046;28;20048;-77
2023/12/02 01:25:09;;;;;;;29.90;19.23;;;;;;;;;;5053117;28;20118;-77
2023/12/02 01:27:35;;;;;;;32.10;19.92;;;;;;;;;;5053277;28;20099;-77
2023/12/02 01:30:01;;;;;;;32.15;20.15;;;;;;;;;;5036101;28;20071;-77
2023/12/02 01:32:27;;;;;;;33.35;20.27;;;;;;;;;;5053045;28;20048;-77
2023/12/02 01:34:53;;;;;;;33.35;21.65;;;;;;;;;;5053063;28;20080;-77
2023/12/02 01:37:19;;;;;;;33.45;21.52;;;;;;;;;;5053071;28;20056;-77
2023/12/02 01:39:45;;;;;;;31.23;21.52;;;;;;;;;;5035782;28;20417;-78
2023/12/02 01:42:12;;;;;;;33.78;21.42;;;;;;;;;;5052372;28;20049;-77
2023/12/02 01:44:38;;;;;;;30.20;20.08;;;;;;;;;;5052914;28;20049;-77
2023/12/02 01:47:04;;;;;;;34.60;21.05;;;;;;;;;;5052061;28;20049;-77
2023/12/02 01:49:31;;;;;;;33.42;21.55;;;;;;;;;;5035552;28;20048;-77
2023/12/02 01:51:57;;;;;;;33.25;20.40;;;;;;;;;;5051581;28;20063;-77
2023/12/02 01:54:23;;;;;;;34.47;21.70;;;;;;;;;;5056735;28;20079;-77
2023/12/02 01:56:50;;;;;;;32.88;20.88;;;;;;;;;;5040085;28;20053;-77
2023/12/02 01:59:16;;;;;;;35.40;22.52;;;;;;;;;;5055657;28;20048;-78
2023/12/02 02:01:42;;;;;;;31.42;21.38;;;;;;;;;;5056467;28;20056;-77
2023/12/02 02:04:08;;;;;;;36.63;21.98;;;;;;;;;;5055193;28;20379;-77
2023/12/02 02:06:34;;;;;;;33.33;22.55;;;;;;;;;;5039096;28;20128;-77
2023/12/02 02:09:00;;;;;;;37.90;21.83;;;;;;;;;;5055725;28;20086;-77
2023/12/02 02:11:26;;;;;;;34.20;23.05;;;;;;;;;;5055620;28;20080;-77
2023/12/02 02:13:52;;;;;;;35.63;22.25;;;;;;;;;;5022634;28;20127;-77
2023/12/02 02:16:18;;;;;;;32.53;21.15;;;;;;;;;;5056326;28;20128;-77
2023/12/02 02:18:44;;;;;;;34.53;22.33;;;;;;;;;;5055159;28;20083;-77
2023/12/02 02:21:11;;;;;;;34.10;21.77;;;;;;;;;;5055467;28;20057;-77
2023/12/02 02:23:37;;;;;;;32.22;21.00;;;;;;;;;;5056352;28;20041;-77
2023/12/02 02:26:03;;;;;;;35.53;22.15;;;;;;;;;;5038809;28;20512;-77
2023/12/02 02:28:29;;;;;;;36.70;22.90;;;;;;;;;;5038392;28;20071;-77
2023/12/02 02:30:55;;;;;;;35.67;22.63;;;;;;;;;;5038714;28;20449;-77
2023/12/02 02:33:21;;;;;;;33.70;21.98;;;;;;;;;;5055304;28;20059;-77
2023/12/02 02:35:48;;;;;;;33.10;20.95;;;;;;;;;;5038890;28;20045;-77
2023/12/02 02:38:14;;;;;;;34.47;21.02;;;;;;;;;;5055165;28;20144;-77
2023/12/02 02:40:40;;;;;;;33.88;21.95;;;;;;;;;;5022143;28;20074;-77
2023/12/02 02:43:06;;;;;;;35.60;22.25;;;;;;;;;;5054899;28;20040;-78
2023/12/02 02:45:32;;;;;;;34.42;21.42;;;;;;;;;;5039218;28;20049;-77
2023/12/02 02:47:59;;;;;;;32.55;21.58;;;;;;;;;;5039219;28;20049;-77
2023/12/02 02:50:25;;;;;;;32.72;20.45;;;;;;;;;;5054398;28;20068;-78
2023/12/02 02:52:51;;;;;;;32.65;20.90;;;;;;;;;;5055713;28;20045;-77
2023/12/02 02:55:17;;;;;;;31.90;21.40;;;;;;;;;;5054719;28;20053;-77
2023/12/02 02:57:43;;;;;;;34.53;22.05;;;;;;;;;;5054708;28;20511;-77
2023/12/02 03:00:09;;;;;;;31.92;21.40;;;;;;;;;;5055499;28;20431;-77
2023/12/02 03:02:39;;;;;;;33.22;23.05;;;;;;;;;;5038001;28;20075;-77
2023/12/02 03:05:05;;;;;;;36.55;22.63;;;;;;;;;;5053388;28;20049;-77
2023/12/02 03:07:32;;;;;;;35.72;22.55;;;;;;;;;;5054618;28;20092;-77
2023/12/02 03:09:58;;;;;;;34.97;22.70;;;;;;;;;;5055380;28;20060;-77
2023/12/02 03:12:25;;;;;;;35.58;23.15;;;;;;;;;;5054487;28;20052;-77
2023/12/02 03:14:51;;;;;;;31.80;20.88;;;;;;;;;;5054466;28;20060;-77
2023/12/02 03:17:18;;;;;;;34.00;22.10;;;;;;;;;;5054410;28;20048;-77
2023/12/02 03:19:44;;;;;;;34.38;22.23;;;;;;;;;;5037419;28;20079;-77
2023/12/02 03:22:10;;;;;;;34.13;22.50;;;;;;;;;;5054271;28;20090;-77
2023/12/02 03:24:36;;;;;;;32.88;22.08;;;;;;;;;;5054251;28;20048;-77
2023/12/02 03:27:03;;;;;;;36.28;22.77;;;;;;;;;;5037616;28;20493;-77
2023/12/02 03:29:29;;;;;;;32.45;21.17;;;;;;;;;;5037540;28;20477;-77
2023/12/02 03:31:55;;;;;;;34.80;22.60;;;;;;;;;;5055750;28;20049;-77
2023/12/02 03:34:21;;;;;;;34.88;22.58;;;;;;;;;;5054407;28;20068;-77
2023/12/02 03:36:47;;;;;;;33.92;22.27;;;;;;;;;;5054052;28;20192;-77
2023/12/02 03:39:15;;;;;;;32.50;22.20;;;;;;;;;;5053999;28;20044;-77
2023/12/02 03:41:41;;;;;;;32.13;21.45;;;;;;;;;;5054005;28;20405;-77
2023/12/02 03:44:07;;;;;;;34.70;22.80;;;;;;;;;;5054430;28;20041;-77
2023/12/02 03:46:35;;;;;;;32.85;22.60;;;;;;;;;;5053500;28;20056;-78
2023/12/02 03:49:01;;;;;;;33.78;22.80;;;;;;;;;;5054043;28;20084;-77
2023/12/02 03:51:27;;;;;;;35.50;23.25;;;;;;;;;;5053331;28;20049;-77
2023/12/02 03:53:53;;;;;;;34.00;23.08;;;;;;;;;;5054531;28;20448;-77
2023/12/02 03:56:20;;;;;;;34.53;22.67;;;;;;;;;;5053673;28;20128;-77
2023/12/02 03:58:46;;;;;;;35.88;23.50;;;;;;;;;;5053451;28;20390;-77
2023/12/02 04:01:12;;;;;;;33.65;22.77;;;;;;;;;;5053594;28;20045;-77
2023/12/02 04:03:39;;;;;;;36.97;23.27;;;;;;;;;;5036688;28;20099;-77
2023/12/02 04:06:05;;;;;;;35.15;22.80;;;;;;;;;;5053783;28;20102;-77
2023/12/02 04:08:31;;;;;;;35.88;22.38;;;;;;;;;;5036844;28;20060;-77
2023/12/02 04:10:57;;;;;;;34.95;23.23;;;;;;;;;;5053439;28;20076;-77
2023/12/02 04:13:24;;;;;;;36.55;23.63;;;;;;;;;;5054174;28;20064;-77
2023/12/02 04:15:50;;;;;;;35.40;22.55;;;;;;;;;;5053056;28;20060;-77
2023/12/02 04:18:16;;;;;;;34.25;22.83;;;;;;;;;;5053411;28;20040;-77
2023/12/02 04:20:43;;;;;;;34.85;23.42;;;;;;;;;;5053244;28;20098;-77
2023/12/02 04:23:09;;;;;;;39.42;23.92;;;;;;;;;;5036442;28;20037;-77
2023/12/02 04:25:35;;;;;;;37.85;23.00;;;;;;;;;;5053188;28;20041;-77
2023/12/02 04:28:01;;;;;;;33.95;21.98;;;;;;;;;;5053353;28;20068;-77
2023/12/02 04:30:27;;;;;;;33.97;22.15;;;;;;;;;;5052766;28;20041;-77
2023/12/02 04:32:53;;;;;;;38.30;23.33;;;;;;;;;;5052739;28;20147;-77
2023/12/02 04:35:19;;;;;;;39.42;24.08;;;;;;;;;;5037362;28;20048;-77
2023/12/02 04:37:46;;;;;;;37.72;23.40;;;;;;;;;;5052940;28;20098;-77
2023/12/02 04:40:12;;;;;;;38.55;23.95;;;;;;;;;;5053162;28;20045;-77
2023/12/02 04:42:41;;;;;;;38.45;23.90;;;;;;;;;;5053544;28;20041;-77
2023/12/02 04:45:08;;;;;;;39.63;24.58;;;;;;;;;;5052897;28;20055;-77
2023/12/02 04:47:36;;;;;;;35.85;23.17;;;;;;;;;;5052977;28;20049;-78
2023/12/02 04:50:03;;;;;;;36.17;23.48;;;;;;;;;;5052666;28;20107;-77
2023/12/02 04:52:30;;;;;;;33.60;21.77;;;;;;;;;;5053082;28;20497;-77
2023/12/02 04:54:56;;;;;;;34.03;22.05;;;;;;;;;;5053482;28;20080;-77
2023/12/02 04:57:22;;;;;;;36.78;22.92;;;;;;;;;;5036089;28;20048;-77
2023/12/02 04:59:48;;;;;;;37.78;23.38;;;;;;;;;;5052658;28;20040;-77
2023/12/02 05:02:14;;;;;;;36.72;22.65;;;;;;;;;;5052520;28;20083;-77
2023/12/02 05:04:40;;;;;;;35.75;23.13;;;;;;;;;;5052853;28;20485;-77
2023/12/02 05:07:06;;;;;;;37.20;24.40;;;;;;;;;;5036762;28;20484;-77
2023/12/02 05:09:33;;;;;;;36.90;23.23;;;;;;;;;;5054107;28;20052;-77
2023/12/02 05:11:59;;;;;;;37.85;24.35;;;;;;;;;;5052525;28;20181;-77
2023/12/02 05:14:25;;;;;;;36.90;22.20;;;;;;;;;;5053121;28;20049;-78
2023/12/02 05:16:52;;;;;;;37.55;23.67;;;;;;;;;;5052265;28;20132;-78
2023/12/02 05:19:18;;;;;;;34.55;22.40;;;;;;;;;;5053249;28;20055;-77
2023/12/02 05:21:44;;;;;;;38.53;24.33;;;;;;;;;;5036168;28;20055;-77
2023/12/02 05:24:10;;;;;;;37.75;23.08;;;;;;;;;;5052100;28;20041;-77
2023/12/02 05:26:36;;;;;;;37.72;23.02;;;;;;;;;;5052400;28;20064;-77
2023/12/02 05:29:05;;;;;;;35.10;22.40;;;;;;;;;;5056088;28;20045;-77
2023/12/02 05:31:31;;;;;;;34.78;22.05;;;;;;;;;;5057011;28;20053;-77
2023/12/02 05:33:58;;;;;;;36.17;22.73;;;;;;;;;;5039446;28;20103;-77
2023/12/02 05:36:24;;;;;;;34.13;23.48;;;;;;;;;;5039756;28;20053;-77
2023/12/02 05:38:50;;;;;;;38.95;24.02;;;;;;;;;;5040029;28;20084;-77
2023/12/02 05:41:16;;;;;;;38.75;23.85;;;;;;;;;;5039623;28;20052;-77
2023/12/02 05:43:42;;;;;;;38.33;23.20;;;;;;;;;;5055709;28;20045;-77
2023/12/02 05:46:15;;;;;;;37.67;24.23;;;;;;;;;;5056240;28;20374;-77
2023/12/02 05:48:41;;;;;;;37.85;23.90;;;;;;;;;;5056700;28;20095;-77
2023/12/02 05:51:07;;;;;;;35.97;23.50;;;;;;;;;;5039265;28;20096;-77
2023/12/02 05:53:33;;;;;;;36.40;23.48;;;;;;;;;;5056909;28;20151;-77
2023/12/02 05:55:59;;;;;;;39.33;24.67;;;;;;;;;;5056852;28;20045;-77
2023/12/02 05:58:25;;;;;;;36.13;24.08;;;;;;;;;;5039544;28;20040;-77
2023/12/02 06:00:51;;;;;;;35.38;23.50;;;;;;;;;;5023039;28;20156;-77
2023/12/02 06:03:17;;;;;;;35.15;23.52;;;;;;;;;;5039358;28;20049;-77
2023/12/02 06:05:43;;;;;;;39.38;25.73;;;;;;;;;;5055547;28;20048;-77
2023/12/02 06:08:09;;;;;;;35.97;23.50;;;;;;;;;;5055761;28;20052;-77
2023/12/02 06:10:35;;;;;;;36.25;22.50;;;;;;;;;;5055715;28;20060;-77
2023/12/02 06:13:02;;;;;;;34.67;22.10;;;;;;;;;;5039203;28;20131;-77
2023/12/02 06:15:28;;;;;;;35.80;22.60;;;;;;;;;;5055730;28;20049;-77
2023/12/02 06:17:56;;;;;;;34.92;22.10;;;;;;;;;;5056325;28;20055;-77
2023/12/02 06:20:26;;;;;;;35.00;22.45;;;;;;;;;;5056408;28;20049;-77
2023/12/02 06:22:53;;;;;;;34.50;22.13;;;;;;;;;;5055728;28;20099;-77
2023/12/02 06:25:19;;;;;;;38.15;22.92;;;;;;;;;;5055482;28;20052;-77
2023/12/02 06:27:45;;;;;;;35.53;21.80;;;;;;;;;;5038896;28;20037;-78
2023/12/02 06:30:14;;;;;;;35.67;23.58;;;;;;;;;;5038733;28;20088;-77
2023/12/02 06:32:40;;;;;;;38.35;22.70;;;;;;;;;;5038775;28;20084;-77
2023/12/02 06:35:06;;;;;;;37.83;23.45;;;;;;;;;;5055286;28;20053;-78
2023/12/02 06:37:32;;;;;;;35.60;22.50;;;;;;;;;;5038791;28;20049;-77
2023/12/02 06:39:58;;;;;;;38.75;24.10;;;;;;;;;;5055579;28;20045;-77
2023/12/02 06:42:25;;;;;;;35.30;22.50;;;;;;;;;;5055125;28;20175;-77
2023/12/02 06:44:51;;;;;;;36.33;22.75;;;;;;;;;;5055156;28;20075;-77
2023/12/02 06:47:17;;;;;;;39.63;24.65;;;;;;;;;;5055014;28;20393;-77
2023/12/02 06:49:43;;;;;;;37.03;24.08;;;;;;;;;;5056281;28;20088;-77
2023/12/02 06:52:10;;;;;;;35.72;23.08;;;;;;;;;;5038756;28;20049;-77
2023/12/02 06:54:36;;;;;;;38.35;21.80;;;;;;;;;;5038363;28;20053;-77
2023/12/02 06:57:04;;;;;;;38.95;24.52;;;;;;;;;;5054932;28;20457;-77
2023/12/02 06:59:30;;;;;;;36.15;22.40;;;;;;;;;;5054519;28;20054;-78
2023/12/02 07:01:56;;;;;;;38.70;23.58;;;;;;;;;;5054707;28;20041;-78
2023/12/02 07:04:22;;;;;;;37.47;22.70;;;;;;;;;;5054430;28;20052;-77
2023/12/02 07:06:49;;;;;;;41.13;23.98;;;;;;;;;;5054617;28;20140;-77
2023/12/02 07:09:15;;;;;;;38.55;24.23;;;;;;;;;;5038818;28;20092;-78
2023/12/02 07:11:41;;;;;;;39.63;25.02;;;;;;;;;;5055382;28;20049;-77
2023/12/02 07:14:07;;;;;;;39.30;24.30;;;;;;;;;;5055272;28;20045;-77
2023/12/02 07:16:34;;;;;;;43.22;25.20;;;;;;;;;;5054534;28;20056;-77
2023/12/02 07:19:00;;;;;;;40.33;24.88;;;;;;;;;;5055236;28;20048;-77
2023/12/02 07:21:26;;;;;;;39.75;23.90;;;;;;;;;;5054429;28;20542;-77
2023/12/02 07:23:52;;;;;;;40.15;25.50;;;;;;;;;;5054349;28;20041;-77
2023/12/02 07:26:18;;;;;;;42.55;25.27;;;;;;;;;;5038014;28;20049;-77
2023/12/02 07:28:44;;;;;;;39.72;24.27;;;;;;;;;;5054273;28;20052;-78
2023/12/02 07:31:14;;;;;;;43.03;25.13;;;;;;;;;;5054228;28;20045;-77
2023/12/02 07:33:40;;;;;;;42.70;25.58;;;;;;;;;;5055147;28;20127;-77
2023/12/02 07:36:07;;;;;;;45.53;26.73;;;;;;;;;;5054063;28;20389;-77
2023/12/02 07:38:33;;;;;;;39.28;24.27;;;;;;;;;;5055658;28;20057;-77
2023/12/02 07:40:59;;;;;;;43.75;26.42;;;;;;;;;;5054052;28;20048;-77
2023/12/02 07:43:25;;;;;;;40.75;24.38;;;;;;;;;;5053431;28;20091;-77
2023/12/02 07:45:51;;;;;;;41.35;25.38;;;;;;;;;;5053978;28;20061;-77
2023/12/02 07:48:17;;;;;;;43.42;26.50;;;;;;;;;;5036921;28;20132;-78
2023/12/02 07:50:43;;;;;;;42.58;26.15;;;;;;;;;;5052868;28;20497;-77
2023/12/02 07:53:10;;;;;;;45.55;27.23;;;;;;;;;;5053760;28;20152;-78
2023/12/02 07:55:36;;;;;;;42.95;25.38;;;;;;;;;;5053771;28;20052;-77
2023/12/02 07:58:02;;;;;;;41.95;23.02;;;;;;;;;;5053724;28;20045;-77
2023/12/02 08:00:28;;;;;;;39.53;25.98;;;;;;;;;;5020721;28;20087;-77
2023/12/02 08:02:54;;;;;;;42.00;24.25;;;;;;;;;;5036891;28;20128;-77
2023/12/02 08:05:20;;;;;;;39.25;24.15;;;;;;;;;;5053563;28;20052;-77
2023/12/02 08:07:46;;;;;;;41.03;26.33;;;;;;;;;;5036972;28;20056;-77
2023/12/02 08:10:12;;;;;;;44.20;27.35;;;;;;;;;;5053486;28;20055;-77
2023/12/02 08:12:38;;;;;;;40.33;25.30;;;;;;;;;;5053465;28;20049;-77
2023/12/02 08:15:05;;;;;;;45.42;26.60;;;;;;;;;;5053381;28;20092;-77
2023/12/02 08:17:32;;;;;;;44.42;26.27;;;;;;;;;;5036628;28;20048;-77
2023/12/02 08:19:58;;;;;;;45.25;26.00;;;;;;;;;;5037509;28;20487;-77
2023/12/02 08:22:24;;;;;;;42.97;26.63;;;;;;;;;;5053195;28;20045;-78
2023/12/02 08:24:54;;;;;;;42.78;25.35;;;;;;;;;;5053327;28;20365;-77
2023/12/02 08:27:21;;;;;;;42.97;26.42;;;;;;;;;;5053976;28;20041;-77
2023/12/02 08:29:47;;;;;;;44.45;26.25;;;;;;;;;;5053135;28;20053;-77
2023/12/02 08:32:13;;;;;;;43.50;27.63;;;;;;;;;;5054074;28;20445;-77
2023/12/02 08:34:39;;;;;;;45.30;27.35;;;;;;;;;;5053057;28;20084;-77
2023/12/02 08:37:06;;;;;;;47.15;27.98;;;;;;;;;;5036385;28;20481;-78
2023/12/02 08:39:32;;;;;;;43.80;25.35;;;;;;;;;;5052994;28;20045;-77
2023/12/02 08:41:58;;;;;;;48.38;28.58;;;;;;;;;;5053705;28;20473;-77
2023/12/02 08:44:24;;;;;;;44.15;26.60;;;;;;;;;;5019653;28;20037;-78
2023/12/02 08:46:54;;;;;;;43.42;25.52;;;;;;;;;;5052870;28;20052;-77
2023/12/02 08:49:20;;;;;;;44.95;26.77;;;;;;;;;;5036164;28;20052;-77
2023/12/02 08:51:46;;;;;;;44.08;26.15;;;;;;;;;;5035721;28;20056;-78
2023/12/02 08:54:13;;;;;;;42.22;26.25;;;;;;;;;;5052377;28;20059;-78
2023/12/02 08:56:39;;;;;;;43.33;26.85;;;;;;;;;;5052735;28;20049;-77
2023/12/02 08:59:05;;;;;;;43.00;26.95;;;;;;;;;;5053673;28;20452;-77
2023/12/02 09:01:31;;;;;;;48.20;27.65;;;;;;;;;;5052311;28;20049;-77
2023/12/02 09:03:57;;;;;;;45.92;27.73;;;;;;;;;;5035670;28;20114;-77
2023/12/02 09:06:23;;;;;;;45.08;26.35;;;;;;;;;;5052379;28;20063;-79
2023/12/02 09:08:49;;;;;;;44.88;26.50;;;;;;;;;;5035758;28;20053;-78
2023/12/02 09:11:16;;;;;;;43.88;25.50;;;;;;;;;;5035931;28;20060;-78
2023/12/02 09:13:43;;;;;;;44.63;27.42;;;;;;;;;;5052379;28;20045;-78
2023/12/02 09:16:10;;;;;;;41.38;25.25;;;;;;;;;;5053194;28;20071;-78
2023/12/02 09:18:37;;;;;;;46.33;27.65;;;;;;;;;;5051943;28;20063;-78
2023/12/02 09:21:04;;;;;;;41.25;25.35;;;;;;;;;;5052839;28;20104;-78
2023/12/02 09:23:30;;;;;;;40.10;24.67;;;;;;;;;;5018877;28;20045;-78
2023/12/02 09:26:03;;;;;;;45.03;27.77;;;;;;;;;;5052966;28;20063;-78
2023/12/02 09:28:29;;;;;;;41.85;26.15;;;;;;;;;;5035925;28;20053;-78
2023/12/02 09:30:56;;;;;;;45.97;26.80;;;;;;;;;;5035173;28;20053;-78
2023/12/02 09:33:22;;;;;;;41.83;25.58;;;;;;;;;;5051850;28;20088;-81
2023/12/02 09:35:53;;;;;;;41.95;25.38;;;;;;;;;;5051715;28;20049;-78
2023/12/02 09:38:20;;;;;;;44.25;27.00;;;;;;;;;;5052116;28;20385;-77
2023/12/02 09:40:49;;;;;;;41.30;24.77;;;;;;;;;;5052914;28;20056;-78
2023/12/02 09:43:15;;;;;;;40.75;25.42;;;;;;;;;;5051430;28;20041;-78
2023/12/02 09:46:00;;;;;;;41.55;25.77;;;;;;;;;;5035493;28;20053;-78
2023/12/02 09:48:28;;;;;;;38.22;24.00;;;;;;;;;;5051976;28;20041;-78
2023/12/02 09:51:03;;;;;;;40.63;25.45;;;;;;;;;;5051509;28;20053;-78
2023/12/02 09:53:35;;;;;;;41.35;25.67;;;;;;;;;;5052778;28;20053;-78
2023/12/02 09:56:07;;;;;;;42.55;25.50;;;;;;;;;;5051968;28;20056;-78
2023/12/02 09:58:37;;;;;;;40.03;25.92;;;;;;;;;;5051821;28;20466;-78
2023/12/02 10:01:07;;;;;;;38.95;24.20;;;;;;;;;;5052811;28;20175;-79
2023/12/02 10:03:48;;;;;;;40.03;25.52;;;;;;;;;;5052368;28;20095;-78
2023/12/02 10:06:27;;;;;;;41.42;25.27;;;;;;;;;;5051749;28;20388;-78
2023/12/02 10:08:59;;;;;;;40.50;24.50;;;;;;;;;;5052954;28;20056;-77
2023/12/02 10:11:53;;;;;;;38.53;24.52;;;;;;;;;;5052522;28;20500;-78
2023/12/02 10:14:22;;;;;;;43.58;27.73;;;;;;;;;;5054291;28;20090;-77
2023/12/02 10:16:50;;;;;;;40.42;24.38;;;;;;;;;;5055918;28;20059;-78
2023/12/02 10:19:36;;;;;;;41.85;25.48;;;;;;;;;;5055569;28;20495;-78
2023/12/02 10:22:03;;;;;;;42.40;25.25;;;;;;;;;;5055613;28;20090;-78
2023/12/02 10:24:35;;;;;;;42.55;26.33;;;;;;;;;;5056037;28;20064;-77
2023/12/02 10:27:06;;;;;;;42.45;25.40;;;;;;;;;;5056367;28;20049;-78
2023/12/02 10:29:36;;;;;;;45.90;27.48;;;;;;;;;;5055428;28;20078;-77
2023/12/02 10:32:25;;;;;;;42.85;26.08;;;;;;;;;;5055340;28;20045;-78
2023/12/02 10:34:59;;;;;;;43.58;25.70;;;;;;;;;;5055103;28;20060;-78
2023/12/02 10:37:25;;;;;;;;;;;;;;;;;;5056023;28;20132;-78
2023/12/02 10:39:53;;;;;;;42.10;25.90;;;;;;;;;;5038581;28;20063;-78
2023/12/02 10:42:27;;;;;;;42.35;25.73;;;;;;;;;;5055366;28;20044;-78
2023/12/02 10:45:01;;;;;;;44.85;26.00;;;;;;;;;;5039423;28;20060;-78
2023/12/02 10:47:28;;;;;;;43.10;26.65;;;;;;;;;;5055796;28;20045;-78
2023/12/02 10:49:55;;;;;;;44.13;26.80;;;;;;;;;;5054761;28;20131;-78
2023/12/02 10:52:21;;;;;;;41.22;25.48;;;;;;;;;;5055358;28;20060;-78
2023/12/02 10:54:50;;;;;;;46.70;28.40;;;;;;;;;;5054957;28;20396;-77
2023/12/02 10:57:17;;;;;;;45.67;27.30;;;;;;;;;;5055086;28;20041;-76
2023/12/02 10:59:50;;;;;;;44.75;27.23;;;;;;;;;;5055123;28;20068;-76
2023/12/02 11:02:32;;;;;;;44.80;26.45;;;;;;;;;;5038436;28;20045;-78
2023/12/02 11:05:16;;;;;;;43.30;26.02;;;;;;;;;;5054795;28;20059;-77
2023/12/02 11:07:45;;;;;;;43.67;27.27;;;;;;;;;;5055800;28;20076;-78
2023/12/02 11:10:13;;;;;;;44.65;28.38;;;;;;;;;;5054626;28;20431;-78
2023/12/02 11:13:00;;;;;;;43.38;27.20;;;;;;;;;;5037969;28;20049;-77
2023/12/02 11:15:28;;;;;;;44.90;27.42;;;;;;;;;;5055672;28;20088;-78
2023/12/02 11:18:03;;;;;;;40.78;25.65;;;;;;;;;;5055269;28;20504;-78
2023/12/02 11:20:43;;;;;;;42.70;27.05;;;;;;;;;;5054477;28;20045;-78
2023/12/02 11:23:29;;;;;;;41.92;26.13;;;;;;;;;;5055110;28;20049;-78
2023/12/02 11:26:13;;;;;;;43.33;27.65;;;;;;;;;;5054173;28;20061;-77
2023/12/02 11:28:58;;;;;;;43.60;26.77;;;;;;;;;;5037442;28;20045;-78
2023/12/02 11:31:28;;;;;;;43.72;26.83;;;;;;;;;;5054306;28;20045;-77
2023/12/02 11:33:54;;;;;;;41.65;26.48;;;;;;;;;;5055036;28;20053;-78
2023/12/02 11:36:39;;;;;;;44.83;28.73;;;;;;;;;;5054450;28;20087;-77
2023/12/02 11:39:26;;;;;;;37.85;24.73;;;;;;;;;;5053848;28;20132;-78
2023/12/02 11:41:55;;;;;;;42.95;27.08;;;;;;;;;;5040346;28;20547;-77
2023/12/02 11:44:21;;;;;;;42.88;27.50;;;;;;;;;;5053780;28;20076;-77
2023/12/02 11:47:01;;;;;;;38.20;25.70;;;;;;;;;;5054810;28;20147;-77
2023/12/02 11:49:27;;;;;;;44.13;28.60;;;;;;;;;;5053891;28;20095;-77
2023/12/02 11:52:00;;;;;;;40.13;26.42;;;;;;;;;;5053265;28;20102;-77
2023/12/02 11:54:38;;;;;;;41.75;26.50;;;;;;;;;;5055504;28;20429;-77
2023/12/02 11:57:27;;;;;;;39.60;25.75;;;;;;;;;;5054159;28;20084;-77
2023/12/02 12:00:11;;;;;;;38.80;26.80;;;;;;;;;;5053858;28;20049;-77
2023/12/02 12:02:38;;;;;;;42.20;26.92;;;;;;;;;;5053184;28;20496;-77
2023/12/02 12:05:23;;;;;;;42.40;26.08;;;;;;;;;;5053359;28;20060;-77
2023/12/02 12:08:07;;;;;;;41.60;24.88;;;;;;;;;;5037030;28;20041;-77
2023/12/02 12:10:35;;;;;;;42.97;26.25;;;;;;;;;;5037783;28;20098;-77
2023/12/02 12:13:02;;;;;;;46.80;27.83;;;;;;;;;;5037746;28;20060;-77
2023/12/02 12:15:28;;;;;;;40.35;26.17;;;;;;;;;;5054266;28;20044;-77
2023/12/02 12:17:55;;;;;;;41.58;27.02;;;;;;;;;;5053407;28;20187;-77
2023/12/02 12:20:22;;;;;;;44.63;27.05;;;;;;;;;;5037376;28;20462;-78
2023/12/02 12:22:48;;;;;;;42.95;27.92;;;;;;;;;;5036717;28;20044;-76
2023/12/02 12:25:15;;;;;;;43.05;28.83;;;;;;;;;;5036813;28;20052;-77
2023/12/02 12:27:41;;;;;;;39.75;26.45;;;;;;;;;;5054065;28;20085;-77
2023/12/02 12:30:08;;;;;;;41.47;27.13;;;;;;;;;;5054101;28;20508;-78
2023/12/02 12:32:34;;;;;;;45.70;28.17;;;;;;;;;;5053210;28;20041;-78
2023/12/02 12:35:00;;;;;;;41.17;26.45;;;;;;;;;;5036587;28;20051;-77
2023/12/02 12:37:28;;;;;;;41.10;27.20;;;;;;;;;;5036354;28;20504;-77
2023/12/02 12:39:54;;;;;;;41.20;27.38;;;;;;;;;;5052823;28;20049;-77
2023/12/02 12:42:20;;;;;;;39.22;26.30;;;;;;;;;;5052927;28;20053;-77
2023/12/02 12:44:46;;;;;;;42.00;26.83;;;;;;;;;;5052960;28;20045;-77
2023/12/02 12:47:13;;;;;;;41.75;27.65;;;;;;;;;;5036451;28;20052;-78
2023/12/02 12:49:43;;;;;;;41.25;28.17;;;;;;;;;;5053232;28;20134;-78
2023/12/02 12:52:10;;;;;;;42.13;27.05;;;;;;;;;;5035873;28;20057;-78
2023/12/02 12:54:43;;;;;;;44.75;28.20;;;;;;;;;;5036197;28;20083;-79
2023/12/02 12:57:13;;;;;;;41.75;26.90;;;;;;;;;;5037490;28;20083;-79
2023/12/02 12:59:40;;;;;;;44.35;28.88;;;;;;;;;;5052810;28;20083;-78
2023/12/02 13:02:24;;;;;;;46.20;29.63;;;;;;;;;;5036081;28;20053;-81
2023/12/02 13:05:09;;;;;;;44.08;27.77;;;;;;;;;;5053539;28;20045;-78
2023/12/02 13:08:08;;;;;;;43.53;26.88;;;;;;;;;;5052614;28;20048;-79
2023/12/02 13:10:34;;;;;;;42.40;26.63;;;;;;;;;;5009297;28;20049;-77
2023/12/02 13:13:04;;;;;;;43.25;27.95;;;;;;;;;;5052577;28;20049;-77
2023/12/02 13:15:33;;;;;;;42.65;27.60;;;;;;;;;;5036718;28;20132;-78
2023/12/02 13:18:00;;;;;;;44.00;26.88;;;;;;;;;;5036246;28;20056;-78
2023/12/02 13:20:26;;;;;;;41.70;27.55;;;;;;;;;;5052178;28;20041;-77
2023/12/02 13:22:53;;;;;;;44.35;26.70;;;;;;;;;;5035703;28;20095;-77
2023/12/02 13:25:20;;;;;;;41.45;27.27;;;;;;;;;;5035592;28;20060;-77
2023/12/02 13:27:49;;;;;;;44.22;27.73;;;;;;;;;;5036362;28;20070;-78
2023/12/02 13:30:16;;;;;;;47.13;30.13;;;;;;;;;;5052155;28;20428;-77
2023/12/02 13:32:43;;;;;;;42.33;28.00;;;;;;;;;;5052179;28;20480;-78
2023/12/02 13:35:11;;;;;;;47.47;29.88;;;;;;;;;;5052243;28;20130;-78
2023/12/02 13:37:56;;;;;;;44.20;30.20;;;;;;;;;;5051994;28;20485;-78
2023/12/02 13:40:27;;;;;;;43.55;28.17;;;;;;;;;;5051967;28;20044;-77
2023/12/02 13:42:54;;;;;;;44.72;27.23;;;;;;;;;;5051710;28;20045;-77
2023/12/02 13:45:21;;;;;;;42.90;26.40;;;;;;;;;;5051729;28;20089;-78
2023/12/02 13:48:04;;;;;;;46.13;27.73;;;;;;;;;;5051720;28;20489;-77
2023/12/02 13:50:43;;;;;;;45.55;28.00;;;;;;;;;;5057172;28;20481;-77
2023/12/02 13:53:15;;;;;;;43.88;28.52;;;;;;;;;;5057169;28;20041;-77
2023/12/02 13:56:11;;;;;;;47.22;29.92;;;;;;;;;;5039723;28;20045;-78
2023/12/02 13:58:43;;;;;;;42.80;27.27;;;;;;;;;;5056057;28;20041;-77
2023/12/02 14:01:35;;;;;;;43.47;27.20;;;;;;;;;;5055978;28;20485;-77
2023/12/02 14:04:08;;;;;;;46.58;28.50;;;;;;;;;;5051931;28;20057;-78
2023/12/02 14:06:54;;;;;;;47.15;29.30;;;;;;;;;;5056066;28;20045;-77
2023/12/02 14:09:22;;;;;;;45.78;27.65;;;;;;;;;;5056617;28;20103;-77
2023/12/02 14:11:48;;;;;;;43.70;28.15;;;;;;;;;;5055769;28;20068;-77
2023/12/02 14:14:34;;;;;;;45.95;27.45;;;;;;;;;;5039812;28;20107;-78
2023/12/02 14:17:06;;;;;;;53.55;36.38;;;;;;;;;;5015900;28;20084;-77
2023/12/02 14:19:38;;;;;;;42.33;27.33;;;;;;;;;;5055781;28;20059;-77
2023/12/02 14:22:13;;;;;;;42.92;28.15;;;;;;;;;;5055327;28;20135;-77
2023/12/02 14:24:39;;;;;;;44.28;26.35;;;;;;;;;;5038987;28;20408;-77
2023/12/02 14:27:35;;;;;;;42.58;28.02;;;;;;;;;;5038868;28;20120;-77